createdAt,value
2022-09-15T00:00:29.299Z,28.50
2022-09-15T00:02:56.254Z,29.10
2022-09-15T00:05:23.356Z,29.20
2022-09-15T00:07:50.186Z,28.60
2022-09-15T00:10:17.744Z,28.02
2022-09-15T00:12:44.634Z,28.13
2022-09-15T00:15:14.957Z,29.98
2022-09-15T00:17:43.470Z,24.27
2022-09-15T00:20:11.011Z,27.83
2022-09-15T00:22:38.290Z,28.17
2022-09-15T00:25:06.212Z,31.38
2022-09-15T00:27:33.927Z,25.90
2022-09-15T00:30:01.021Z,30.17
2022-09-15T00:32:29.408Z,30.65
2022-09-15T00:34:56.206Z,30.98
2022-09-15T00:37:24.497Z,31.73
2022-09-15T00:39:52.711Z,29.08
2022-09-15T00:42:22.532Z,33.30
2022-09-15T00:44:52.421Z,31.42
2022-09-15T00:47:23.786Z,31.55
2022-09-15T00:49:59.074Z,34.67
2022-09-15T00:52:49.447Z,35.95
2022-09-15T00:55:30.774Z,34.83
2022-09-15T00:58:06.617Z,34.15
2022-09-15T01:00:34.518Z,34.85
2022-09-15T01:03:02.186Z,33.15
2022-09-15T01:05:39.750Z,36.88
2022-09-15T01:08:23.513Z,35.95
2022-09-15T01:10:52.166Z,35.13
2022-09-15T01:13:19.082Z,36.03
2022-09-15T01:16:03.254Z,34.67
2022-09-15T01:18:35.977Z,35.13
2022-09-15T01:21:33.644Z,35.20
2022-09-15T01:24:29.231Z,34.85
2022-09-15T01:26:59.108Z,36.00
2022-09-15T01:30:04.522Z,33.28
2022-09-15T01:33:05.052Z,32.80
2022-09-15T01:35:59.611Z,37.15
2022-09-15T01:41:09.108Z,34.30
2022-09-15T01:43:44.274Z,35.70
2022-09-15T01:46:12.364Z,33.85
2022-09-15T01:48:40.110Z,36.25
2022-09-15T01:51:07.626Z,32.03
2022-09-15T01:53:35.103Z,30.02
2022-09-15T01:56:12.166Z,30.35
2022-09-15T01:58:41.075Z,34.65
2022-09-15T02:01:18.661Z,34.67
2022-09-15T02:03:55.628Z,33.45
2022-09-15T02:06:39.861Z,33.47
2022-09-15T02:14:31.006Z,33.15
2022-09-15T02:16:58.396Z,34.70
2022-09-15T02:19:41.118Z,34.13
2022-09-15T02:22:24.797Z,34.45
2022-09-15T02:25:03.643Z,34.92
2022-09-15T02:27:37.553Z,35.67
2022-09-15T02:32:37.244Z,33.05
2022-09-15T02:35:06.739Z,33.03
2022-09-15T02:37:36.666Z,34.92
2022-09-15T02:40:06.430Z,33.00
2022-09-15T02:42:34.163Z,34.05
2022-09-15T02:45:02.003Z,32.65
2022-09-15T02:47:29.374Z,32.30
2022-09-15T02:49:57.779Z,33.25
2022-09-15T02:52:24.649Z,29.75
2022-09-15T02:54:51.984Z,31.50
2022-09-15T02:57:18.741Z,31.73
2022-09-15T03:00:17.648Z,32.72
2022-09-15T03:02:50.053Z,28.50
2022-09-15T03:05:19.992Z,30.17
2022-09-15T03:07:46.963Z,29.70
2022-09-15T03:10:13.864Z,30.02
2022-09-15T03:12:42.865Z,30.73
2022-09-15T03:15:11.499Z,30.58
2022-09-15T03:17:41.618Z,32.30
2022-09-15T03:20:10.438Z,30.05
2022-09-15T03:22:37.506Z,32.60
2022-09-15T03:25:09.068Z,32.67
2022-09-15T03:27:36.219Z,26.95
2022-09-15T03:30:05.192Z,32.25
2022-09-15T03:32:31.963Z,29.73
2022-09-15T03:34:59.257Z,31.80
2022-09-15T03:37:26.252Z,31.83
2022-09-15T03:39:53.215Z,32.40
2022-09-15T03:42:21.486Z,31.98
2022-09-15T03:44:48.274Z,32.53
2022-09-15T03:47:15.191Z,32.47
2022-09-15T03:49:42.018Z,29.70
2022-09-15T03:52:08.775Z,32.58
2022-09-15T03:54:35.607Z,32.60
2022-09-15T03:57:03.359Z,28.40
2022-09-15T03:59:30.159Z,32.05
2022-09-15T04:01:57.099Z,30.42
2022-09-15T04:04:23.898Z,29.90
2022-09-15T04:06:51.276Z,29.77
2022-09-15T04:09:20.238Z,31.80
2022-09-15T04:11:47.722Z,31.25
2022-09-15T04:14:14.626Z,29.38
2022-09-15T04:16:41.421Z,29.88
2022-09-15T04:19:08.472Z,29.95
2022-09-15T04:21:35.201Z,30.33
2022-09-15T04:24:05.068Z,28.83
2022-09-15T04:26:36.788Z,29.90
2022-09-15T04:29:05.735Z,30.85
2022-09-15T04:31:33.787Z,30.77
2022-09-15T04:34:01.507Z,28.20
2022-09-15T04:36:29.405Z,30.52
2022-09-15T04:38:56.942Z,31.25
2022-09-15T04:41:27.876Z,30.38
2022-09-15T04:43:54.717Z,32.38
2022-09-15T04:46:21.622Z,29.58
2022-09-15T04:48:49.023Z,30.13
2022-09-15T04:51:19.190Z,28.88
2022-09-15T04:53:46.526Z,31.10
2022-09-15T04:56:15.970Z,30.42
2022-09-15T04:58:45.453Z,31.95
2022-09-15T05:01:21.431Z,30.00
2022-09-15T05:03:48.876Z,29.92
2022-09-15T05:06:19.342Z,28.92
2022-09-15T05:08:50.362Z,26.23
2022-09-15T05:11:19.033Z,25.42
2022-09-15T05:13:46.051Z,28.23
2022-09-15T05:16:18.842Z,29.48
2022-09-15T05:18:47.690Z,30.13
2022-09-15T05:21:17.457Z,25.27
2022-09-15T05:23:44.783Z,24.05
2022-09-15T05:26:14.700Z,23.15
2022-09-15T05:28:43.495Z,23.20
2022-09-15T05:31:13.263Z,24.75
2022-09-15T05:33:40.355Z,23.88
2022-09-15T05:36:07.418Z,23.40
2022-09-15T05:38:34.552Z,25.35
2022-09-15T05:41:12.813Z,25.85
2022-09-15T05:43:40.043Z,24.42
2022-09-15T05:46:07.755Z,24.33
2022-09-15T05:48:35.320Z,23.70
2022-09-15T05:51:02.740Z,22.65
2022-09-15T05:53:31.080Z,20.42
2022-09-15T05:55:59.773Z,24.27
2022-09-15T05:58:27.021Z,22.88
2022-09-15T06:00:54.669Z,22.52
2022-09-15T06:03:27.472Z,20.23
2022-09-15T06:06:06.358Z,21.02
2022-09-15T06:08:35.080Z,21.77
2022-09-15T06:11:03.566Z,20.65
2022-09-15T06:13:30.336Z,19.80
2022-09-15T06:16:11.231Z,21.75
2022-09-15T06:18:39.069Z,21.13
2022-09-15T06:21:11.499Z,22.02
2022-09-15T06:23:39.055Z,21.70
2022-09-15T06:26:14.346Z,21.52
2022-09-15T06:28:47.229Z,21.30
2022-09-15T06:31:15.225Z,22.60
2022-09-15T06:33:44.021Z,21.88
2022-09-15T06:36:15.190Z,19.35
2022-09-15T06:38:43.159Z,21.70
2022-09-15T06:41:10.661Z,23.00
2022-09-15T06:43:37.818Z,22.30
2022-09-15T06:46:09.203Z,20.65
2022-09-15T06:48:37.501Z,21.58
2022-09-15T06:51:05.895Z,24.90
2022-09-15T06:53:34.772Z,22.33
2022-09-15T06:56:06.256Z,22.25
2022-09-15T06:58:35.548Z,21.65
2022-09-15T07:01:10.821Z,22.33
2022-09-15T07:03:39.182Z,20.58
2022-09-15T07:06:07.280Z,20.02
2022-09-15T07:08:34.475Z,21.02
2022-09-15T07:14:38.592Z,18.40
2022-09-15T07:17:05.313Z,18.83
2022-09-15T07:19:32.176Z,18.02
2022-09-15T07:21:58.849Z,17.80
2022-09-15T07:24:25.641Z,16.42
2022-09-15T07:26:52.438Z,17.63
2022-09-15T07:29:19.140Z,17.95
2022-09-15T07:31:45.952Z,14.77
2022-09-15T07:34:12.817Z,16.73
2022-09-15T07:36:39.828Z,16.00
2022-09-15T07:39:06.690Z,16.60
2022-09-15T07:41:33.701Z,16.83
2022-09-15T07:44:01.613Z,15.38
2022-09-15T07:46:31.295Z,16.17
2022-09-15T07:48:58.213Z,15.82
2022-09-15T07:51:26.384Z,14.25
2022-09-15T07:53:53.876Z,17.17
2022-09-15T07:56:21.700Z,16.90
2022-09-15T07:58:49.230Z,15.40
2022-09-15T08:01:17.851Z,15.80
2022-09-15T08:03:48.842Z,18.35
2022-09-15T08:06:17.016Z,19.77
2022-09-15T08:08:46.590Z,18.00
2022-09-15T08:11:18.887Z,20.00
2022-09-15T08:13:50.444Z,20.80
2022-09-15T08:16:19.974Z,21.33
2022-09-15T08:18:47.207Z,19.20
2022-09-15T08:21:17.411Z,20.88
2022-09-15T08:23:44.418Z,20.85
2022-09-15T08:26:14.429Z,19.70
2022-09-15T08:28:42.245Z,17.42
2022-09-15T08:31:11.588Z,20.48
2022-09-15T08:33:43.179Z,20.52
2022-09-15T08:36:11.739Z,20.52
2022-09-15T08:38:40.696Z,18.17
2022-09-15T08:41:37.002Z,18.70
2022-09-15T08:44:33.461Z,17.83
2022-09-15T08:47:25.051Z,16.75
2022-09-15T08:50:24.709Z,17.02
2022-09-15T08:53:02.635Z,16.52
2022-09-15T08:55:36.749Z,15.57
2022-09-15T08:58:13.350Z,14.93
2022-09-15T09:00:40.976Z,14.30
2022-09-15T09:03:26.571Z,14.00
2022-09-15T09:06:22.521Z,13.75
2022-09-15T09:09:14.435Z,12.82
2022-09-15T09:12:00.897Z,14.68
2022-09-15T09:14:39.380Z,14.38
2022-09-15T09:17:39.577Z,10.98
2022-09-15T09:20:22.260Z,12.27
2022-09-15T09:22:53.141Z,12.63
2022-09-15T09:25:27.562Z,11.68
2022-09-15T09:27:55.610Z,11.68
2022-09-15T09:30:24.196Z,10.00
2022-09-15T09:33:21.379Z,9.20
2022-09-15T09:35:52.659Z,10.95
2022-09-15T09:38:28.671Z,10.15
2022-09-15T09:41:01.284Z,10.00
2022-09-15T09:43:32.870Z,9.95
2022-09-15T09:45:59.960Z,10.15
2022-09-15T09:48:28.860Z,9.57
2022-09-15T09:50:56.078Z,9.38
2022-09-15T09:53:31.311Z,9.00
2022-09-15T09:56:16.217Z,9.55
2022-09-15T09:58:43.459Z,8.23
2022-09-15T10:01:16.136Z,8.95
2022-09-15T10:03:43.997Z,9.45
2022-09-15T10:06:23.815Z,8.45
2022-09-15T10:09:05.684Z,8.85
2022-09-15T10:11:43.317Z,8.98
2022-09-15T10:14:28.498Z,8.82
2022-09-15T10:17:00.921Z,7.85
2022-09-15T10:19:30.697Z,8.80
2022-09-15T10:21:59.276Z,9.23
2022-09-15T10:24:31.752Z,10.60
2022-09-15T10:27:19.217Z,10.38
2022-09-15T10:29:46.548Z,9.43
2022-09-15T10:32:26.000Z,8.82
2022-09-15T10:35:00.583Z,8.75
2022-09-15T10:37:36.128Z,8.13
2022-09-15T10:40:29.637Z,6.35
2022-09-15T10:43:11.511Z,6.53
2022-09-15T10:45:47.657Z,5.97
2022-09-15T10:48:23.406Z,4.50
2022-09-15T10:50:59.181Z,4.35
2022-09-15T10:53:49.463Z,4.95
2022-09-15T10:57:31.887Z,5.20
2022-09-15T11:00:25.776Z,6.63
2022-09-15T11:03:25.180Z,5.93
2022-09-15T11:06:09.869Z,4.70
2022-09-15T11:08:53.183Z,4.32
2022-09-15T11:11:40.571Z,4.47
2022-09-15T11:14:19.323Z,5.07
2022-09-15T11:17:21.161Z,4.35
2022-09-15T11:20:03.256Z,3.88
2022-09-15T11:22:39.160Z,4.35
2022-09-15T11:25:16.587Z,3.92
2022-09-15T11:27:49.651Z,4.35
2022-09-15T11:30:16.458Z,4.00
2022-09-15T11:33:01.002Z,3.53
2022-09-15T11:35:42.364Z,3.30
2022-09-15T11:38:24.352Z,3.58
2022-09-15T11:41:31.034Z,3.45
2022-09-15T11:44:06.689Z,5.35
2022-09-15T11:46:59.702Z,3.63
2022-09-15T11:49:42.745Z,3.17
2022-09-15T11:52:36.232Z,2.80
2022-09-15T11:55:15.776Z,3.08
2022-09-15T11:58:05.744Z,3.00
2022-09-15T12:00:34.942Z,3.20
2022-09-15T12:03:23.297Z,3.72
2022-09-15T12:05:57.083Z,3.67
2022-09-15T12:08:37.593Z,3.80
2022-09-15T12:11:10.275Z,4.03
2022-09-15T12:13:37.667Z,3.70
2022-09-15T12:16:06.057Z,3.50
2022-09-15T12:18:49.363Z,3.00
2022-09-15T12:21:22.831Z,3.15
2022-09-15T12:24:11.536Z,2.80
2022-09-15T12:26:38.779Z,2.78
2022-09-15T12:29:25.842Z,3.40
2022-09-15T12:32:24.212Z,3.45
2022-09-15T12:35:01.800Z,3.40
2022-09-15T12:37:45.851Z,3.25
2022-09-15T12:40:42.212Z,4.35
2022-09-15T12:43:12.958Z,3.92
2022-09-15T12:45:42.948Z,3.45
2022-09-15T12:48:24.740Z,3.00
2022-09-15T12:50:58.466Z,3.30
2022-09-15T12:53:29.725Z,3.85
2022-09-15T12:55:58.087Z,3.00
2022-09-15T12:58:37.925Z,2.95
2022-09-15T13:01:23.187Z,3.28
2022-09-15T13:03:50.190Z,2.45
2022-09-15T13:06:21.851Z,2.85
2022-09-15T13:08:50.371Z,2.90
2022-09-15T13:11:38.440Z,3.22
2022-09-15T13:14:08.166Z,3.55
2022-09-15T13:16:41.181Z,3.90
2022-09-15T13:19:44.522Z,4.23
2022-09-15T13:22:11.242Z,3.25
2022-09-15T13:25:02.068Z,2.85
2022-09-15T13:27:37.047Z,3.35
2022-09-15T13:30:24.985Z,3.22
2022-09-15T13:33:01.046Z,3.35
2022-09-15T13:35:52.026Z,3.72
2022-09-15T13:38:53.081Z,3.75
2022-09-15T13:41:34.982Z,2.80
2022-09-15T13:44:26.147Z,2.88
2022-09-15T13:47:17.934Z,3.00
2022-09-15T13:49:52.301Z,2.60
2022-09-15T13:52:37.615Z,2.90
2022-09-15T13:55:27.967Z,3.10
2022-09-15T14:00:59.152Z,3.13
2022-09-15T14:03:54.862Z,2.75
2022-09-15T14:06:25.913Z,2.15
2022-09-15T14:08:57.192Z,2.92
2022-09-15T14:11:30.776Z,2.38
2022-09-15T14:13:59.550Z,2.97
2022-09-15T14:16:35.209Z,2.30
2022-09-15T14:19:23.772Z,2.65
2022-09-15T14:21:53.827Z,2.53
2022-09-15T14:24:29.063Z,2.28
2022-09-15T14:26:58.744Z,2.17
2022-09-15T14:29:26.891Z,2.60
2022-09-15T14:31:59.024Z,2.92
2022-09-15T14:34:29.042Z,2.80
2022-09-15T14:37:06.369Z,2.70
2022-09-15T14:39:33.803Z,2.70
2022-09-15T14:42:32.715Z,2.45
2022-09-15T14:48:07.225Z,2.30
2022-09-15T14:50:34.344Z,2.13
2022-09-15T14:53:13.575Z,2.55
2022-09-15T14:56:08.231Z,2.33
2022-09-15T14:58:49.424Z,2.70
2022-09-15T15:01:32.408Z,2.50
2022-09-15T15:04:11.099Z,2.65
2022-09-15T15:06:56.495Z,2.38
2022-09-15T15:09:41.685Z,2.22
2022-09-15T15:12:27.205Z,2.53
2022-09-15T15:14:56.317Z,2.25
2022-09-15T15:17:33.675Z,2.47
2022-09-15T15:20:08.229Z,2.60
2022-09-15T15:22:39.074Z,2.40
2022-09-15T15:25:28.388Z,2.15
2022-09-15T15:27:57.427Z,2.10
2022-09-15T15:30:30.885Z,2.17
2022-09-15T15:33:26.980Z,2.30
2022-09-15T15:36:08.291Z,1.92
2022-09-15T15:38:51.856Z,2.00
2022-09-15T15:41:31.457Z,1.95
2022-09-15T15:44:08.245Z,1.60
2022-09-15T15:46:48.402Z,1.75
2022-09-15T15:49:16.350Z,2.00
2022-09-15T15:51:43.186Z,1.88
2022-09-15T15:54:09.969Z,1.88
2022-09-15T15:56:38.003Z,2.03
2022-09-15T15:59:05.859Z,2.30
2022-09-15T16:01:33.245Z,2.30
2022-09-15T16:04:00.154Z,2.08
2022-09-15T16:06:28.300Z,2.47
2022-09-15T16:08:58.278Z,2.35
2022-09-15T16:11:25.214Z,2.40
2022-09-15T16:13:52.778Z,2.50
2022-09-15T16:16:22.860Z,2.63
2022-09-15T16:18:50.595Z,2.28
2022-09-15T16:21:37.408Z,2.03
2022-09-15T16:24:12.610Z,2.10
2022-09-15T16:26:40.129Z,2.00
2022-09-15T16:29:07.106Z,2.22
2022-09-15T16:31:34.886Z,1.90
2022-09-15T16:34:01.736Z,2.03
2022-09-15T16:36:29.658Z,1.70
2022-09-15T16:38:56.519Z,2.22
2022-09-15T16:41:25.850Z,1.75
2022-09-15T16:43:59.455Z,1.65
2022-09-15T16:46:26.641Z,1.83
2022-09-15T16:48:53.509Z,1.65
2022-09-15T16:51:31.560Z,2.08
2022-09-15T16:53:58.907Z,1.83
2022-09-15T16:56:25.811Z,1.80
2022-09-15T16:58:58.866Z,1.80
2022-09-15T17:01:27.056Z,2.05
2022-09-15T17:03:53.965Z,1.70
2022-09-15T17:06:22.276Z,2.03
2022-09-15T17:08:50.031Z,1.67
2022-09-15T17:11:18.855Z,1.90
2022-09-15T17:13:46.600Z,1.42
2022-09-15T17:16:15.925Z,1.77
2022-09-15T17:19:15.048Z,2.00
2022-09-15T17:21:41.906Z,2.08
2022-09-15T17:24:09.482Z,2.08
2022-09-15T17:26:36.208Z,2.40
2022-09-15T17:29:03.017Z,1.88
2022-09-15T17:31:29.968Z,2.20
2022-09-15T17:33:57.163Z,8.95
2022-09-15T17:36:24.158Z,5.35
2022-09-15T17:38:51.032Z,4.57
2022-09-15T17:41:20.199Z,2.08
2022-09-15T17:43:47.458Z,1.80
2022-09-15T17:46:14.813Z,1.73
2022-09-15T17:48:41.772Z,1.80
2022-09-15T17:51:14.553Z,1.60
2022-09-15T17:53:41.489Z,1.60
2022-09-15T17:56:08.394Z,1.85
2022-09-15T17:58:35.385Z,1.58
2022-09-15T18:01:04.031Z,1.60
2022-09-15T18:03:35.068Z,1.77
2022-09-15T18:06:05.486Z,1.80
2022-09-15T18:08:36.193Z,1.42
2022-09-15T18:11:04.682Z,1.52
2022-09-15T18:13:32.006Z,2.00
2022-09-15T18:16:07.402Z,2.00
2022-09-15T18:18:34.409Z,1.77
2022-09-15T18:21:01.538Z,1.85
2022-09-15T18:23:29.617Z,2.10
2022-09-15T18:25:59.854Z,1.85
2022-09-15T18:28:26.675Z,1.63
2022-09-15T18:30:53.588Z,2.00
2022-09-15T18:33:26.907Z,1.52
2022-09-15T18:35:56.541Z,1.50
2022-09-15T18:38:23.521Z,1.90
2022-09-15T18:40:55.773Z,1.90
2022-09-15T18:43:27.032Z,1.85
2022-09-15T18:45:58.893Z,1.80
2022-09-15T18:48:25.742Z,1.83
2022-09-15T18:50:53.640Z,1.70
2022-09-15T18:53:20.597Z,1.58
2022-09-15T18:55:47.738Z,1.65
2022-09-15T18:58:14.844Z,1.80
2022-09-15T19:00:41.978Z,1.83
2022-09-15T19:03:09.712Z,2.17
2022-09-15T19:05:37.349Z,1.90
2022-09-15T19:08:04.557Z,1.58
2022-09-15T19:10:31.418Z,1.42
2022-09-15T19:12:58.177Z,2.25
2022-09-15T19:15:25.094Z,1.50
2022-09-15T19:17:55.208Z,1.70
2022-09-15T19:20:22.111Z,1.80
2022-09-15T19:22:51.709Z,1.98
2022-09-15T19:25:19.337Z,1.85
2022-09-15T19:27:46.252Z,1.90
2022-09-15T19:30:24.306Z,1.95
2022-09-15T19:32:51.674Z,1.40
2022-09-15T19:35:19.194Z,1.92
2022-09-15T19:37:46.143Z,1.90
2022-09-15T19:40:14.548Z,2.25
2022-09-15T19:42:43.372Z,2.10
2022-09-15T19:45:12.039Z,2.22
2022-09-15T19:47:39.484Z,1.90
2022-09-15T19:50:11.734Z,2.08
2022-09-15T19:52:38.883Z,1.95
2022-09-15T19:55:07.862Z,2.15
2022-09-15T19:57:37.722Z,2.08
2022-09-15T20:00:05.852Z,2.40
2022-09-15T20:02:32.774Z,2.25
2022-09-15T20:04:59.663Z,2.33
2022-09-15T20:07:26.631Z,1.98
2022-09-15T20:09:53.473Z,1.88
2022-09-15T20:14:47.962Z,2.08
2022-09-15T20:17:18.010Z,1.85
2022-09-15T20:19:45.115Z,1.50
2022-09-15T20:22:12.022Z,1.58
2022-09-15T20:24:38.961Z,1.58
2022-09-15T20:27:21.746Z,1.70
2022-09-15T20:29:50.498Z,2.10
2022-09-15T20:32:18.058Z,1.63
2022-09-15T20:34:44.796Z,1.27
2022-09-15T20:37:12.176Z,1.77
2022-09-15T20:39:39.167Z,1.42
2022-09-15T20:42:06.100Z,1.83
2022-09-15T20:44:33.125Z,1.58
2022-09-15T20:47:01.124Z,1.63
2022-09-15T20:49:29.310Z,1.60
2022-09-15T20:51:56.090Z,1.80
2022-09-15T20:54:22.808Z,1.50
2022-09-15T20:56:49.768Z,1.67
2022-09-15T20:59:17.773Z,1.48
2022-09-15T21:01:47.730Z,1.70
2022-09-15T21:04:15.983Z,1.67
2022-09-15T21:06:43.893Z,1.70
2022-09-15T21:09:10.943Z,1.75
2022-09-15T21:11:37.746Z,1.60
2022-09-15T21:14:04.691Z,1.52
2022-09-15T21:16:33.929Z,1.48
2022-09-15T21:19:02.027Z,1.42
2022-09-15T21:21:31.413Z,1.50
2022-09-15T21:24:03.523Z,1.48
2022-09-15T21:26:33.059Z,1.60
2022-09-15T21:29:00.480Z,1.48
2022-09-15T21:31:30.108Z,1.60
2022-09-15T21:33:57.980Z,1.60
2022-09-15T21:36:27.707Z,1.92
2022-09-15T21:38:56.471Z,1.80
2022-09-15T21:41:26.099Z,1.92
2022-09-15T21:43:54.951Z,1.50
2022-09-15T21:46:26.745Z,1.30
2022-09-15T21:48:55.907Z,1.35
2022-09-15T21:51:25.199Z,1.70
2022-09-15T21:53:55.152Z,1.63
2022-09-15T21:56:23.334Z,1.50
2022-09-15T21:58:51.537Z,1.58
2022-09-15T22:01:19.897Z,1.40
2022-09-15T22:03:53.295Z,1.65
2022-09-15T22:06:22.610Z,1.65
2022-09-15T22:08:50.778Z,1.55
2022-09-15T22:11:17.964Z,1.50
2022-09-15T22:13:44.866Z,1.42
2022-09-15T22:16:23.109Z,1.80
2022-09-15T22:18:51.097Z,1.50
2022-09-15T22:21:20.306Z,1.85
2022-09-15T22:23:48.299Z,1.30
2022-09-15T22:26:20.480Z,1.70
2022-09-15T22:28:49.875Z,1.65
2022-09-15T22:31:21.289Z,1.85
2022-09-15T22:33:48.464Z,1.65
2022-09-15T22:36:29.541Z,2.00
2022-09-15T22:39:02.854Z,1.48
2022-09-15T22:41:32.813Z,1.60
2022-09-15T22:43:59.772Z,1.48
2022-09-15T22:46:26.593Z,1.92
2022-09-15T22:48:54.747Z,1.60
2022-09-15T22:51:22.758Z,1.23
2022-09-15T22:53:56.600Z,1.40
2022-09-15T22:56:23.472Z,1.55
2022-09-15T22:58:50.496Z,1.58
2022-09-15T23:01:20.694Z,1.67
2022-09-15T23:03:57.322Z,1.60
2022-09-15T23:06:25.932Z,1.50
2022-09-15T23:08:58.091Z,1.67
2022-09-15T23:11:26.671Z,1.50
2022-09-15T23:13:54.258Z,1.30
2022-09-15T23:16:22.365Z,1.67
2022-09-15T23:18:49.684Z,2.03
2022-09-15T23:21:17.779Z,1.58
2022-09-15T23:23:47.696Z,1.65
2022-09-15T23:26:15.645Z,1.70
2022-09-15T23:28:42.557Z,1.67
2022-09-15T23:31:12.226Z,2.10
2022-09-15T23:33:40.038Z,1.40
2022-09-15T23:36:10.450Z,1.90
2022-09-15T23:38:39.607Z,1.50
2022-09-15T23:41:07.390Z,1.77
2022-09-15T23:43:34.882Z,1.95
2022-09-15T23:46:02.333Z,1.38
2022-09-15T23:48:31.624Z,1.88
2022-09-15T23:50:58.722Z,1.90
2022-09-15T23:53:25.722Z,1.92
2022-09-15T23:55:52.521Z,1.88
2022-09-15T23:58:19.359Z,1.70
